Time;durP1;ratioP1;P1;durP2;ratioP2;P2;SDS_P1;SDS_P2;PMS_P1;PMS_P2;Temp;Humidity;BMP_temperature;BMP_pressure;BME280_temperature;BME280_humidity;BME280_pressure;Samples;Min_cycle;Max_cycle;Signal;HPM_P1;HPM_P2
2021/03/08 00:01:36;;;;;;;12.67;9.70;;;;;;;-2.99;64.55;95807.75;5036839;28;20626;-75
2021/03/08 00:04:01;;;;;;;13.50;9.43;;;;;;;-2.94;64.27;95816.00;5035037;28;20176;-75
2021/03/08 00:06:26;;;;;;;12.83;8.97;;;;;;;-2.99;63.91;95807.75;5034863;28;20220;-75
2021/03/08 00:08:53;;;;;;;10.50;8.33;;;;;;;-3.05;64.03;95811.34;5035091;28;20635;-76
2021/03/08 00:11:19;;;;;;;15.73;9.40;;;;;;;-3.06;64.67;95812.22;5034772;28;20221;-75
2021/03/08 00:13:44;;;;;;;12.93;8.27;;;;;;;-3.10;64.26;95805.59;5034557;28;20232;-75
2021/03/08 00:16:09;;;;;;;11.67;8.23;;;;;;;-3.11;63.97;95808.19;5034805;28;20190;-75
2021/03/08 00:18:34;;;;;;;10.33;8.23;;;;;;;-3.15;64.42;95812.59;5016910;28;20254;-75
2021/03/08 00:21:00;;;;;;;10.97;8.03;;;;;;;-3.21;64.86;95817.88;5034525;28;20299;-75
2021/03/08 00:23:25;;;;;;;12.50;8.80;;;;;;;-3.26;64.94;95815.53;5017170;28;20213;-75
2021/03/08 00:25:50;;;;;;;12.80;8.47;;;;;;;-3.30;65.42;95808.06;5033270;28;20271;-75
2021/03/08 00:28:16;;;;;;;12.33;8.53;;;;;;;-3.35;65.67;95805.72;5033503;28;20261;-75
2021/03/08 00:30:41;;;;;;;10.53;7.87;;;;;;;-3.38;65.71;95815.97;5016633;28;20209;-75
2021/03/08 00:33:06;;;;;;;12.30;9.20;;;;;;;-3.38;65.72;95810.06;5035690;28;20218;-75
2021/03/08 00:35:32;;;;;;;13.37;8.23;;;;;;;-3.43;65.07;95807.72;5033005;28;20211;-75
2021/03/08 00:37:57;;;;;;;13.57;8.87;;;;;;;-3.48;65.40;95812.13;5034543;28;20195;-75
2021/03/08 00:40:23;;;;;;;10.60;8.37;;;;;;;-3.49;65.08;95810.47;5034460;28;20204;-75
2021/03/08 00:42:48;;;;;;;13.67;8.13;;;;;;;-3.48;65.55;95807.06;5038451;28;20195;-75
2021/03/08 00:45:15;;;;;;;9.67;7.80;;;;;;;-3.51;65.86;95812.25;5055056;28;20187;-75
2021/03/08 00:47:41;;;;;;;11.30;8.63;;;;;;;-3.54;65.37;95808.09;5054750;28;20185;-76
2021/03/08 00:50:09;;;;;;;11.30;8.17;;;;;;;-3.52;65.22;95797.91;5054908;28;20222;-75
2021/03/08 00:52:34;;;;;;;12.03;8.47;;;;;;;-3.54;65.46;95794.56;5055190;28;20187;-75
2021/03/08 00:55:00;;;;;;;12.47;8.40;;;;;;;-3.54;65.49;95802.19;5037053;28;20192;-75
2021/03/08 00:57:25;;;;;;;10.10;7.47;;;;;;;-3.58;65.54;95798.94;5017597;28;20187;-75
2021/03/08 00:59:51;;;;;;;12.17;8.43;;;;;;;-3.58;65.97;95795.59;5033783;28;20649;-75
2021/03/08 01:02:16;;;;;;;10.87;7.97;;;;;;;-3.61;65.69;95798.25;5033570;28;20571;-75
2021/03/08 01:04:41;;;;;;;10.97;8.67;;;;;;;-3.64;65.93;95794.09;5034695;28;20736;-75
2021/03/08 01:07:07;;;;;;;12.03;8.73;;;;;;;-3.65;66.35;95794.16;5033473;28;20561;-75
2021/03/08 01:09:32;;;;;;;11.87;8.40;;;;;;;-3.65;66.12;95791.59;5033049;28;20563;-75
2021/03/08 01:11:57;;;;;;;9.60;7.83;;;;;;;-3.66;65.91;95792.50;5032428;28;20191;-75
2021/03/08 01:14:23;;;;;;;11.43;8.10;;;;;;;-3.65;65.62;95781.47;5034507;28;20190;-74
2021/03/08 01:16:48;;;;;;;12.47;8.70;;;;;;;-3.62;64.74;95786.41;5016028;28;20186;-74
2021/03/08 01:19:14;;;;;;;11.17;8.40;;;;;;;-3.59;64.53;95779.53;5016025;28;20368;-75
2021/03/08 01:21:39;;;;;;;14.60;9.33;;;;;;;-3.61;64.70;95780.47;5032638;28;20776;-75
2021/03/08 01:24:05;;;;;;;14.47;9.00;;;;;;;-3.64;64.47;95783.94;5033669;28;20179;-74
2021/03/08 01:26:30;;;;;;;15.93;10.27;;;;;;;-3.66;65.36;95778.09;5029080;28;20662;-75
2021/03/08 01:28:56;;;;;;;21.03;12.10;;;;;;;-3.71;65.67;95773.19;5052287;28;20213;-75
2021/03/08 01:31:21;;;;;;;20.13;11.40;;;;;;;-3.74;65.58;95775.00;5052140;28;20665;-75
2021/03/08 01:33:50;;;;;;;16.57;10.47;;;;;;;-3.80;65.96;95768.47;5052277;28;20181;-74
2021/03/08 01:36:16;;;;;;;15.23;10.53;;;;;;;-3.80;65.54;95762.53;5046941;28;20554;-75
2021/03/08 01:38:41;;;;;;;15.60;10.30;;;;;;;-3.81;65.75;95760.88;5015585;28;20211;-75
2021/03/08 01:41:06;;;;;;;15.57;10.03;;;;;;;-3.89;65.55;95761.16;5015547;28;20211;-75
2021/03/08 01:43:32;;;;;;;16.33;10.63;;;;;;;-3.90;66.13;95762.03;5032027;28;20184;-74
2021/03/08 01:45:57;;;;;;;13.10;8.73;;;;;;;-3.92;66.66;95761.28;5031644;28;20192;-74
2021/03/08 01:48:22;;;;;;;11.33;8.83;;;;;;;-3.94;65.92;95765.59;5034302;28;20177;-75
2021/03/08 01:50:49;;;;;;;11.30;8.63;;;;;;;-4.01;66.61;95757.34;5032981;28;20204;-75
2021/03/08 01:53:16;;;;;;;12.43;8.77;;;;;;;-4.00;66.54;95763.25;5032652;28;20194;-75
2021/03/08 01:55:42;;;;;;;13.73;8.63;;;;;;;-4.04;66.60;95754.13;5031548;28;20183;-74
2021/03/08 01:58:07;;;;;;;9.93;8.20;;;;;;;-4.06;67.14;95754.19;5021118;28;20185;-74
2021/03/08 02:00:33;;;;;;;12.53;8.23;;;;;;;-4.12;66.74;95745.94;5031608;28;20206;-74
2021/03/08 02:02:59;;;;;;;10.80;8.20;;;;;;;-4.16;67.41;95747.75;5032862;28;20179;-74
2021/03/08 02:05:30;;;;;;;12.13;8.30;;;;;;;-4.13;66.62;95756.97;5031500;28;20241;-74
2021/03/08 02:07:55;;;;;;;12.73;8.80;;;;;;;-4.18;67.57;95752.06;5035844;28;20179;-74
2021/03/08 02:10:21;;;;;;;11.17;8.13;;;;;;;-4.21;66.93;95748.81;5051171;28;20205;-74
2021/03/08 02:12:46;;;;;;;12.47;8.30;;;;;;;-4.23;66.93;95748.03;5051409;28;20273;-75
2021/03/08 02:15:24;;;;;;;10.90;8.10;;;;;;;-4.27;67.22;95753.22;5052330;28;20647;-75
2021/03/08 02:18:08;;;;;;;11.80;8.53;;;;;;;-4.32;67.87;95755.09;5051375;28;20267;-74
2021/03/08 02:20:46;;;;;;;12.30;8.70;;;;;;;-4.27;66.86;95755.75;5049063;28;20359;-74
2021/03/08 02:23:51;;;;;;;12.73;8.63;;;;;;;-4.30;67.29;95748.25;5051282;28;20658;-74
2021/03/08 02:26:31;;;;;;;10.47;8.03;;;;;;;-4.28;66.94;95746.47;5050681;28;20247;-75
2021/03/08 02:29:22;;;;;;;11.43;8.37;;;;;;;-4.24;67.38;95752.28;5033370;28;20181;-74
2021/03/08 02:31:49;;;;;;;11.53;8.70;;;;;;;-4.24;66.29;95752.28;5047710;28;20202;-74
2021/03/08 02:34:21;;;;;;;14.13;8.67;;;;;;;-4.20;67.13;95753.81;5030894;28;20170;-74
2021/03/08 02:36:50;;;;;;;14.10;8.67;;;;;;;-4.22;66.58;95754.78;5031107;28;20619;-74
2021/03/08 02:39:23;;;;;;;11.60;8.60;;;;;;;-4.29;66.69;95752.44;5030895;28;20237;-75
2021/03/08 02:41:51;;;;;;;9.90;7.90;;;;;;;-4.33;67.29;95745.84;5050530;28;20205;-74
2021/03/08 02:44:19;;;;;;;11.33;8.57;;;;;;;-4.33;67.65;95748.38;5050609;28;20177;-75
2021/03/08 02:46:46;;;;;;;11.53;7.93;;;;;;;-4.36;67.81;95740.84;5050707;28;20547;-74
2021/03/08 02:49:21;;;;;;;11.73;8.57;;;;;;;-4.38;67.58;95747.69;5050847;28;20171;-74
2021/03/08 02:51:50;;;;;;;12.97;9.33;;;;;;;-4.41;68.24;95740.19;5036766;28;20579;-74
2021/03/08 02:54:17;;;;;;;13.37;9.00;;;;;;;-4.39;68.50;95742.69;5030589;28;20240;-74
2021/03/08 02:56:44;;;;;;;12.80;8.60;;;;;;;-4.38;69.14;95740.09;5030741;28;20174;-74
2021/03/08 02:59:11;;;;;;;12.03;9.23;;;;;;;-4.37;69.33;95734.13;5030508;28;20569;-74
2021/03/08 03:01:36;;;;;;;13.20;9.63;;;;;;;-4.35;69.00;95739.13;5031532;28;20348;-74
2021/03/08 03:04:03;;;;;;;15.63;10.33;;;;;;;-4.37;68.96;95744.28;5030583;28;20249;-74
2021/03/08 03:06:34;;;;;;;13.47;8.97;;;;;;;-4.43;69.72;95748.72;5046929;28;20711;-74
2021/03/08 03:09:04;;;;;;;15.40;9.67;;;;;;;-4.43;69.16;95743.66;5030489;28;20186;-74
2021/03/08 03:11:30;;;;;;;15.07;10.43;;;;;;;-4.49;69.37;95749.78;5014131;28;20304;-74
2021/03/08 03:13:55;;;;;;;11.53;9.60;;;;;;;-4.57;70.08;95741.59;5049722;28;20638;-74
2021/03/08 03:16:22;;;;;;;15.20;9.83;;;;;;;-4.54;69.58;95743.19;5049918;28;20173;-74
2021/03/08 03:18:50;;;;;;;14.27;10.23;;;;;;;-4.61;69.85;95753.53;5050305;28;20211;-74
2021/03/08 03:21:16;;;;;;;14.57;11.03;;;;;;;-4.65;70.26;95751.16;5033585;28;20292;-74
2021/03/08 03:23:43;;;;;;;15.10;10.87;;;;;;;-4.68;70.89;95754.63;5048593;28;20192;-74
2021/03/08 03:26:08;;;;;;;14.47;10.70;;;;;;;-4.72;70.79;95754.78;5049942;28;20534;-73
2021/03/08 03:28:34;;;;;;;16.50;11.37;;;;;;;-4.75;70.70;95747.28;5050156;28;20204;-74
2021/03/08 03:31:00;;;;;;;18.07;11.77;;;;;;;-4.75;70.80;95749.81;5051242;28;20259;-74
2021/03/08 03:33:27;;;;;;;15.17;10.80;;;;;;;-4.77;71.28;95754.09;5028257;28;20178;-74
2021/03/08 03:35:52;;;;;;;14.73;11.20;;;;;;;-4.80;70.65;95757.56;5013429;28;20281;-74
2021/03/08 03:38:20;;;;;;;17.40;11.13;;;;;;;-4.59;71.89;95751.78;5030312;28;20328;-73
2021/03/08 03:40:47;;;;;;;16.90;11.60;;;;;;;-4.59;71.26;95750.97;5030114;28;20750;-74
2021/03/08 03:43:12;;;;;;;16.50;11.70;;;;;;;-4.51;71.42;95758.28;5030002;28;20178;-74
2021/03/08 03:45:38;;;;;;;16.90;12.33;;;;;;;-4.36;71.42;95771.28;5030873;28;20649;-74
2021/03/08 03:48:04;;;;;;;15.27;11.33;;;;;;;-4.12;71.54;95768.78;5030163;28;20261;-74
2021/03/08 03:50:29;;;;;;;20.83;15.20;;;;;;;-4.13;71.48;95765.41;5013521;28;20201;-74
2021/03/08 03:52:55;;;;;;;18.63;13.60;;;;;;;-4.08;71.06;95762.69;5029589;28;20260;-74
2021/03/08 03:55:22;;;;;;;19.30;13.33;;;;;;;-4.04;71.04;95766.81;5030718;28;20189;-74
2021/03/08 03:58:18;;;;;;;16.17;11.00;;;;;;;-3.98;70.72;95776.72;5029963;28;20218;-74
2021/03/08 04:00:59;;;;;;;15.27;12.27;;;;;;;-4.08;70.94;95778.75;5030021;28;20724;-74
2021/03/08 04:03:36;;;;;;;15.93;11.20;;;;;;;-4.04;71.13;95775.22;5029954;28;20274;-74
2021/03/08 04:06:02;;;;;;;16.67;11.77;;;;;;;-3.99;71.14;95782.66;5017781;28;20634;-74
2021/03/08 04:08:28;;;;;;;15.27;11.30;;;;;;;-3.99;70.61;95790.28;5030038;28;20228;-74
2021/03/08 04:10:55;;;;;;;14.70;11.17;;;;;;;-4.08;71.40;95790.59;5029764;28;20207;-74
2021/03/08 04:13:25;;;;;;;16.03;11.53;;;;;;;-4.09;72.02;95786.41;5013461;28;20186;-74
2021/03/08 04:15:50;;;;;;;12.97;10.50;;;;;;;-4.17;71.18;95784.13;5030936;28;20186;-74
2021/03/08 04:18:16;;;;;;;15.33;11.33;;;;;;;-4.18;71.79;95787.56;5029770;28;20194;-74
2021/03/08 04:20:42;;;;;;;14.87;10.83;;;;;;;-4.10;72.09;95794.91;5029675;28;20194;-74
2021/03/08 04:23:10;;;;;;;14.63;11.17;;;;;;;-4.09;71.91;95796.56;5029772;28;20170;-74
2021/03/08 04:25:37;;;;;;;19.23;11.87;;;;;;;-4.16;72.04;95790.03;5029725;28;20182;-74
2021/03/08 04:28:05;;;;;;;18.90;13.20;;;;;;;-4.13;72.01;95785.72;5030726;28;20179;-74
2021/03/08 04:30:31;;;;;;;21.43;13.70;;;;;;;-4.19;71.86;95792.69;5029604;28;20252;-74
2021/03/08 04:32:57;;;;;;;20.43;13.83;;;;;;;-4.19;72.22;95792.69;5029504;28;20202;-74
2021/03/08 04:35:24;;;;;;;19.63;12.87;;;;;;;-4.08;72.37;95788.88;5029409;28;20905;-73
2021/03/08 04:37:50;;;;;;;19.30;12.27;;;;;;;-4.05;71.99;95798.94;5030733;28;20175;-74
2021/03/08 04:40:16;;;;;;;17.40;12.73;;;;;;;-4.10;72.73;95795.72;5029435;28;20275;-74
2021/03/08 04:42:42;;;;;;;17.80;12.47;;;;;;;-4.16;72.35;95792.56;5013085;28;20183;-74
2021/03/08 04:45:09;;;;;;;18.10;12.33;;;;;;;-4.06;72.50;95801.53;5031588;28;20197;-74
2021/03/08 04:47:35;;;;;;;12.47;10.90;;;;;;;-3.99;71.75;95797.88;5032894;28;20175;-74
2021/03/08 04:50:00;;;;;;;17.47;12.50;;;;;;;-4.02;71.84;95800.53;5034293;28;20622;-73
2021/03/08 04:52:26;;;;;;;15.90;11.53;;;;;;;-4.01;72.53;95807.28;5032652;28;20171;-74
2021/03/08 04:54:52;;;;;;;13.80;10.63;;;;;;;-4.09;72.21;95801.63;5032732;28;20561;-74
2021/03/08 04:57:20;;;;;;;16.40;11.93;;;;;;;-4.18;72.27;95807.03;5032878;28;20266;-74
2021/03/08 04:59:52;;;;;;;15.13;12.33;;;;;;;-4.29;72.43;95805.69;5033744;28;20578;-74
2021/03/08 05:02:19;;;;;;;15.70;11.50;;;;;;;-4.37;72.86;95806.81;5016298;28;20190;-74
2021/03/08 05:04:47;;;;;;;15.07;11.50;;;;;;;-4.42;72.25;95798.53;5016070;28;20185;-74
2021/03/08 05:07:15;;;;;;;12.97;10.43;;;;;;;-4.51;72.38;95804.72;5016164;28;20665;-74
2021/03/08 05:09:41;;;;;;;15.53;11.00;;;;;;;-4.57;72.96;95804.97;5033671;28;20178;-73
2021/03/08 05:12:07;;;;;;;17.63;12.40;;;;;;;-4.60;72.90;95812.63;5032349;28;20658;-73
2021/03/08 05:14:33;;;;;;;18.20;11.97;;;;;;;-4.66;73.30;95810.34;5032225;28;20261;-73
2021/03/08 05:17:00;;;;;;;16.80;11.33;;;;;;;-4.72;73.38;95813.88;5032604;28;20290;-74
2021/03/08 05:19:26;;;;;;;16.30;11.93;;;;;;;-4.75;73.05;95823.28;5015888;28;20256;-74
2021/03/08 05:21:52;;;;;;;19.80;12.70;;;;;;;-4.79;73.42;95809.88;5049037;28;20209;-74
2021/03/08 05:24:17;;;;;;;18.97;13.07;;;;;;;-4.83;73.09;95815.09;5035442;28;20174;-74
2021/03/08 05:26:43;;;;;;;20.43;14.37;;;;;;;-4.86;73.48;95816.00;5052136;28;20660;-73
2021/03/08 05:29:09;;;;;;;17.47;13.43;;;;;;;-4.90;73.50;95806.88;5052255;28;20269;-74
2021/03/08 05:31:36;;;;;;;19.30;14.10;;;;;;;-4.93;73.73;95812.03;5042860;28;20202;-74
2021/03/08 05:34:03;;;;;;;17.77;13.43;;;;;;;-4.98;73.97;95817.22;5033428;28;20669;-74
2021/03/08 05:36:32;;;;;;;20.77;13.80;;;;;;;-4.99;73.09;95820.66;5031913;28;20232;-74
2021/03/08 05:38:57;;;;;;;18.50;13.63;;;;;;;-5.03;73.74;95819.09;5032135;28;20198;-73
2021/03/08 05:41:24;;;;;;;18.33;13.53;;;;;;;-5.01;73.47;95821.59;5032877;28;20202;-74
2021/03/08 05:43:52;;;;;;;16.80;12.13;;;;;;;-5.03;73.77;95820.81;5032063;28;20179;-73
2021/03/08 05:46:36;;;;;;;16.47;12.63;;;;;;;-5.03;73.93;95811.50;5031713;28;20194;-74
2021/03/08 05:49:20;;;;;;;18.90;12.73;;;;;;;-5.03;73.50;95818.28;5033106;28;20249;-74
2021/03/08 05:51:57;;;;;;;17.23;11.70;;;;;;;-5.03;73.37;95816.56;5032442;28;20560;-73
2021/03/08 05:54:37;;;;;;;15.70;11.43;;;;;;;-5.03;73.67;95820.81;5032837;28;20178;-74
2021/03/08 05:57:21;;;;;;;16.87;12.17;;;;;;;-5.04;73.13;95814.88;5031766;28;20649;-73
2021/03/08 06:00:15;;;;;;;14.53;11.17;;;;;;;-5.04;73.11;95819.94;5032754;28;20202;-73
2021/03/08 06:02:54;;;;;;;17.20;12.30;;;;;;;-5.01;73.20;95835.06;5034000;28;20240;-74
2021/03/08 06:05:46;;;;;;;20.60;12.47;;;;;;;-5.00;73.29;95835.91;5051138;28;20212;-74
2021/03/08 06:08:17;;;;;;;17.13;12.40;;;;;;;-4.98;73.41;95840.03;5042019;28;20182;-73
2021/03/08 06:11:03;;;;;;;19.53;12.63;;;;;;;-4.93;73.18;95848.34;5052567;28;20221;-74
2021/03/08 06:13:32;;;;;;;18.40;12.13;;;;;;;-4.86;73.42;95844.72;5033147;28;20185;-74
2021/03/08 06:15:59;;;;;;;15.50;11.80;;;;;;;-4.85;72.71;95846.38;5051091;28;20587;-74
2021/03/08 06:18:32;;;;;;;15.53;12.03;;;;;;;-4.80;73.14;95845.41;5051090;28;20177;-74
2021/03/08 06:20:58;;;;;;;18.40;13.03;;;;;;;-4.78;72.69;95848.72;5034629;28;20305;-74
2021/03/08 06:23:26;;;;;;;20.27;12.50;;;;;;;-4.72;72.91;95846.00;5051160;28;20180;-74
2021/03/08 06:25:53;;;;;;;20.03;13.10;;;;;;;-4.68;73.16;95847.53;5050494;28;20268;-74
2021/03/08 06:28:19;;;;;;;19.27;12.60;;;;;;;-4.64;72.67;95841.50;5045325;28;20243;-74
2021/03/08 06:30:44;;;;;;;19.37;12.57;;;;;;;-4.57;73.53;95837.91;5051846;28;20276;-73
2021/03/08 06:33:11;;;;;;;18.37;12.73;;;;;;;-4.50;73.12;95841.91;5034258;28;20276;-73
2021/03/08 06:35:36;;;;;;;17.87;12.17;;;;;;;-4.45;73.17;95836.66;5041858;28;20225;-73
2021/03/08 06:38:01;;;;;;;15.47;11.63;;;;;;;-4.39;72.69;95842.38;5030937;28;20198;-74
2021/03/08 06:40:27;;;;;;;17.07;12.33;;;;;;;-4.33;72.50;95844.72;5017285;28;20238;-74
2021/03/08 06:42:52;;;;;;;16.70;12.50;;;;;;;-4.25;72.31;95843.59;5046962;28;20177;-74
2021/03/08 06:45:18;;;;;;;16.43;12.50;;;;;;;-4.19;72.18;95848.47;5030807;28;20190;-74
2021/03/08 06:47:43;;;;;;;19.03;13.30;;;;;;;-4.10;72.48;95851.53;5030598;28;20194;-74
2021/03/08 06:50:09;;;;;;;21.43;13.50;;;;;;;-4.03;72.43;95852.16;5050604;28;20285;-74
2021/03/08 06:52:42;;;;;;;19.63;12.70;;;;;;;-3.94;72.06;95851.84;5050528;28;20618;-73
2021/03/08 06:55:08;;;;;;;20.83;14.63;;;;;;;-3.82;71.89;95861.56;5030271;28;20188;-73
2021/03/08 06:57:35;;;;;;;27.63;15.83;;;;;;;-3.74;72.23;95859.59;5031695;28;20265;-74
2021/03/08 07:00:07;;;;;;;29.37;16.80;;;;;;;-3.63;72.11;95856.66;5030354;28;20218;-74
2021/03/08 07:02:37;;;;;;;28.43;17.60;;;;;;;-3.57;71.96;95865.78;5038275;28;20210;-73
2021/03/08 07:05:03;;;;;;;27.97;16.13;;;;;;;-3.49;71.69;95868.88;5056738;28;20665;-74
2021/03/08 07:07:29;;;;;;;26.37;16.00;;;;;;;-3.42;71.65;95868.59;5038940;28;20942;-74
2021/03/08 07:09:54;;;;;;;27.30;16.03;;;;;;;-3.30;71.17;95864.78;5043649;28;20269;-74
2021/03/08 07:12:20;;;;;;;22.70;16.13;;;;;;;-3.20;71.57;95867.78;5040120;28;20205;-74
2021/03/08 07:14:46;;;;;;;21.30;15.73;;;;;;;-3.13;71.72;95867.50;5026580;28;20190;-74
2021/03/08 07:17:35;;;;;;;19.63;15.03;;;;;;;-3.00;70.41;95869.63;5049693;28;20212;-74
2021/03/08 07:20:05;;;;;;;17.70;13.23;;;;;;;-2.93;71.27;95869.28;5048094;28;20768;-73
2021/03/08 07:22:50;;;;;;;21.10;13.40;;;;;;;-2.73;69.84;95866.00;5050156;28;20663;-73
2021/03/08 07:25:18;;;;;;;16.47;12.43;;;;;;;-2.58;69.77;95874.72;5049857;28;20173;-74
2021/03/08 07:27:45;;;;;;;17.33;12.83;;;;;;;-2.42;68.93;95880.03;5050136;28;20275;-74
2021/03/08 07:30:11;;;;;;;16.93;13.73;;;;;;;-2.34;68.62;95878.03;5031759;28;20206;-74
2021/03/08 07:32:50;;;;;;;16.70;12.57;;;;;;;-2.20;69.24;95885.13;5030309;28;20183;-74
2021/03/08 07:35:15;;;;;;;15.80;12.63;;;;;;;-2.09;68.17;95886.31;5029672;28;20236;-74
2021/03/08 07:37:46;;;;;;;17.37;13.47;;;;;;;-2.03;68.22;95888.63;5043613;28;20281;-74
2021/03/08 07:40:21;;;;;;;17.73;12.33;;;;;;;-1.95;68.23;95892.53;5047202;28;20248;-74
2021/03/08 07:42:46;;;;;;;16.87;13.17;;;;;;;-1.92;67.70;95894.97;5049966;28;20224;-74
2021/03/08 07:45:12;;;;;;;17.10;12.73;;;;;;;-1.82;67.40;95888.59;5049484;28;20184;-73
2021/03/08 07:47:38;;;;;;;15.57;12.70;;;;;;;-1.66;66.44;95886.25;5033276;28;20341;-78
2021/03/08 07:50:23;;;;;;;16.43;13.07;;;;;;;-1.41;66.11;95891.94;5045026;28;20226;-74
2021/03/08 07:52:48;;;;;;;14.97;11.53;;;;;;;-1.34;64.63;95892.47;5029897;28;20197;-74
2021/03/08 07:55:14;;;;;;;18.17;12.50;;;;;;;-1.31;65.23;95900.00;5031244;28;20183;-74
2021/03/08 07:57:39;;;;;;;15.93;11.70;;;;;;;-1.29;64.96;95903.31;5030257;28;20208;-74
2021/03/08 08:00:05;;;;;;;16.40;12.97;;;;;;;-1.24;65.13;95903.91;5030879;28;20215;-75
2021/03/08 08:02:31;;;;;;;18.57;12.77;;;;;;;-1.33;65.04;95909.41;5049566;28;20197;-74
2021/03/08 08:04:56;;;;;;;16.23;13.17;;;;;;;-1.43;65.34;95908.97;5049690;28;20728;-74
2021/03/08 08:07:22;;;;;;;15.90;12.60;;;;;;;-1.40;65.35;95908.03;5049704;28;20189;-74
2021/03/08 08:09:47;;;;;;;18.00;12.73;;;;;;;-1.48;65.68;95904.09;5049818;28;20255;-74
2021/03/08 08:12:14;;;;;;;16.67;12.67;;;;;;;-1.45;65.29;95910.78;5031130;28;20655;-74
2021/03/08 08:14:41;;;;;;;18.03;12.70;;;;;;;-1.38;65.26;95908.81;5047858;28;20201;-76
2021/03/08 08:17:14;;;;;;;17.00;13.53;;;;;;;-1.28;64.75;95918.53;5049536;28;20657;-74
2021/03/08 08:19:43;;;;;;;16.53;13.50;;;;;;;-1.27;64.94;95909.16;5052733;28;20211;-75
2021/03/08 08:22:14;;;;;;;16.03;12.20;;;;;;;-1.17;65.03;95918.03;5047133;28;20703;-75
2021/03/08 08:24:40;;;;;;;16.00;12.70;;;;;;;-1.10;65.25;95911.78;5033259;28;20550;-74
2021/03/08 08:27:06;;;;;;;16.13;13.20;;;;;;;-1.07;64.45;95910.81;5033380;28;20179;-74
2021/03/08 08:29:33;;;;;;;16.87;13.10;;;;;;;-0.99;64.33;95911.28;5033139;28;20655;-74
2021/03/08 08:32:06;;;;;;;15.87;12.90;;;;;;;-0.97;64.19;95910.34;5034655;28;20205;-74
2021/03/08 08:34:37;;;;;;;17.83;12.93;;;;;;;-0.95;63.75;95913.66;5067465;28;20183;-74
2021/03/08 08:37:13;;;;;;;20.27;13.90;;;;;;;-0.88;63.71;95912.50;5054432;28;20184;-74
2021/03/08 08:39:43;;;;;;;17.67;12.63;;;;;;;-0.82;63.71;95908.00;5052998;28;20664;-74
2021/03/08 08:42:12;;;;;;;19.90;13.57;;;;;;;-0.87;63.15;95910.75;5053012;28;20229;-74
2021/03/08 08:44:38;;;;;;;20.10;13.70;;;;;;;-0.71;63.71;95909.13;5035858;28;20195;-74
2021/03/08 08:47:23;;;;;;;19.17;13.97;;;;;;;-0.62;62.84;95913.00;5053020;28;20180;-74
2021/03/08 08:49:50;;;;;;;15.03;12.60;;;;;;;-0.79;62.75;95916.34;5035781;28;20193;-74
2021/03/08 08:52:17;;;;;;;18.63;13.57;;;;;;;-0.66;63.56;95914.03;5032279;28;20682;-74
2021/03/08 08:54:49;;;;;;;16.50;12.97;;;;;;;-0.65;63.73;95920.78;5017017;28;20184;-75
2021/03/08 08:57:15;;;;;;;17.73;13.77;;;;;;;-0.65;62.99;95921.63;5032970;28;20600;-75
2021/03/08 08:59:49;;;;;;;19.70;13.27;;;;;;;-0.61;63.78;95919.78;5032676;28;20281;-75
2021/03/08 09:02:16;;;;;;;20.47;13.00;;;;;;;-0.60;63.88;95923.97;5033083;28;20181;-74
2021/03/08 09:04:42;;;;;;;19.77;13.47;;;;;;;-0.49;63.21;95918.38;5032586;28;20185;-74
2021/03/08 09:07:17;;;;;;;16.17;12.90;;;;;;;-0.36;63.01;95929.63;5033884;28;20598;-75
2021/03/08 09:09:43;;;;;;;18.43;13.93;;;;;;;-0.18;63.20;95922.84;5032678;28;20181;-75
2021/03/08 09:12:09;;;;;;;17.70;12.83;;;;;;;-0.33;62.32;95920.13;5033683;28;20250;-74
2021/03/08 09:14:41;;;;;;;17.00;12.03;;;;;;;-0.22;62.45;95921.34;5033703;28;20300;-74
2021/03/08 09:17:28;;;;;;;16.43;12.03;;;;;;;-0.10;61.79;95923.28;5035484;28;20292;-74
2021/03/08 09:19:57;;;;;;;17.57;12.63;;;;;;;-0.26;61.70;95923.22;5032257;28;20221;-74
2021/03/08 09:22:22;;;;;;;15.50;11.60;;;;;;;-0.16;62.68;95923.59;5042544;28;20185;-74
2021/03/08 09:25:08;;;;;;;16.37;11.43;;;;;;;0.11;62.00;95917.16;5053306;28;20178;-74
2021/03/08 09:27:35;;;;;;;17.50;12.23;;;;;;;0.02;61.42;95922.72;5054700;28;20666;-75
2021/03/08 09:30:21;;;;;;;18.50;13.17;;;;;;;0.24;60.46;95918.19;5035249;28;20563;-75
2021/03/08 09:33:08;;;;;;;15.37;11.37;;;;;;;0.21;60.63;95914.97;5032660;28;20282;-74
2021/03/08 09:35:38;;;;;;;14.60;12.60;;;;;;;0.42;61.11;95918.19;5040342;28;20806;-74
2021/03/08 09:38:09;;;;;;;15.30;11.73;;;;;;;0.56;60.01;95920.88;5047658;28;20526;-74
2021/03/08 09:40:36;;;;;;;13.23;10.93;;;;;;;0.60;59.92;95924.09;5049583;28;20212;-74
2021/03/08 09:43:03;;;;;;;17.13;12.83;;;;;;;0.61;59.48;95923.19;5047171;28;20270;-75
2021/03/08 09:45:31;;;;;;;17.57;12.87;;;;;;;0.56;60.55;95920.88;5048629;28;20185;-75
2021/03/08 09:48:02;;;;;;;14.63;12.00;;;;;;;0.75;59.91;95921.59;5053223;28;20217;-75
2021/03/08 09:50:29;;;;;;;13.20;10.83;;;;;;;0.59;58.85;95915.59;5062696;28;20197;-74
2021/03/08 09:52:55;;;;;;;15.97;11.20;;;;;;;0.61;57.77;95920.63;5039908;28;20186;-74
2021/03/08 09:55:26;;;;;;;13.57;11.77;;;;;;;0.71;58.58;95915.00;5038992;28;20182;-74
2021/03/08 09:57:52;;;;;;;13.97;11.37;;;;;;;0.83;58.13;95916.91;5039385;28;20185;-74
2021/03/08 10:00:23;;;;;;;15.73;12.00;;;;;;;0.97;58.02;95917.91;5045810;28;20583;-76
2021/03/08 10:03:00;;;;;;;12.17;10.07;;;;;;;1.06;58.11;95919.97;5043852;28;20195;-74
2021/03/08 10:05:51;;;;;;;13.73;10.33;;;;;;;1.26;56.03;95918.94;5046487;28;20186;-75
2021/03/08 10:08:18;;;;;;;12.33;9.77;;;;;;;1.30;56.57;95921.22;5041895;28;20183;-74
2021/03/08 10:10:49;;;;;;;12.47;9.10;;;;;;;1.28;54.64;95923.06;5039098;28;20692;-74
2021/03/08 10:13:14;;;;;;;10.27;8.07;;;;;;;1.11;54.26;95918.00;5027960;28;20190;-74
2021/03/08 10:15:52;;;;;;;10.07;8.27;;;;;;;0.97;56.21;95920.47;5048913;28;20217;-74
2021/03/08 10:18:30;;;;;;;9.73;8.37;;;;;;;1.11;55.40;95921.41;5043191;28;20189;-74
2021/03/08 10:20:57;;;;;;;13.43;8.80;;;;;;;1.33;55.87;95925.38;5042491;28;20197;-74
2021/03/08 10:23:34;;;;;;;9.10;7.27;;;;;;;1.41;53.06;95921.50;5029345;28;20198;-74
2021/03/08 10:26:05;;;;;;;8.43;7.17;;;;;;;1.48;52.67;95919.41;5036488;28;20240;-74
2021/03/08 10:28:38;;;;;;;9.07;7.43;;;;;;;1.45;53.78;95914.47;5044911;28;20186;-73
2021/03/08 10:31:05;;;;;;;12.20;7.60;;;;;;;1.30;53.75;95917.84;5039960;28;20708;-75
2021/03/08 10:33:31;;;;;;;9.93;6.80;;;;;;;1.47;51.59;95917.78;5043362;28;20675;-73
2021/03/08 10:35:57;;;;;;;8.40;7.37;;;;;;;1.35;52.06;95908.22;5031942;28;20223;-74
2021/03/08 10:38:23;;;;;;;9.07;7.57;;;;;;;1.50;52.46;95914.22;5039332;28;20174;-74
2021/03/08 10:40:49;;;;;;;9.73;7.30;;;;;;;1.46;51.96;95912.75;5042507;28;20208;-73
2021/03/08 10:43:14;;;;;;;9.70;6.83;;;;;;;1.87;52.60;95906.16;5044644;28;20189;-74
2021/03/08 10:45:40;;;;;;;8.63;6.73;;;;;;;1.90;50.97;95907.72;5040814;28;20182;-73
2021/03/08 10:48:09;;;;;;;9.93;7.27;;;;;;;1.68;50.48;95908.09;5048654;28;20190;-76
2021/03/08 10:50:51;;;;;;;11.97;7.37;;;;;;;1.66;49.98;95915.03;5044174;28;20197;-73
2021/03/08 10:53:17;;;;;;;8.87;6.43;;;;;;;1.43;50.82;95908.63;5033201;28;20188;-74
2021/03/08 10:55:43;;;;;;;9.43;7.57;;;;;;;1.57;51.39;95911.22;5042319;28;20507;-74
2021/03/08 10:58:09;;;;;;;8.80;7.30;;;;;;;1.65;51.19;95913.38;5032843;28;20192;-73
2021/03/08 11:00:35;;;;;;;9.00;7.13;;;;;;;1.84;50.50;95901.19;5041081;28;20217;-74
2021/03/08 11:03:00;;;;;;;10.93;7.70;;;;;;;1.80;50.21;95909.97;5032398;28;20194;-74
2021/03/08 11:05:27;;;;;;;11.83;8.20;;;;;;;1.89;49.38;95908.63;5023295;28;20182;-74
2021/03/08 11:07:52;;;;;;;9.37;7.80;;;;;;;1.69;49.24;95918.25;5035749;28;20616;-73
2021/03/08 11:10:34;;;;;;;10.73;7.20;;;;;;;1.60;49.93;95915.38;5047164;28;20285;-74
2021/03/08 11:13:01;;;;;;;10.80;7.47;;;;;;;1.68;49.51;95910.66;5036432;28;20304;-74
2021/03/08 11:15:26;;;;;;;9.37;7.30;;;;;;;1.63;50.65;95910.91;5047832;28;20545;-74
2021/03/08 11:17:52;;;;;;;9.77;7.40;;;;;;;2.09;50.31;95910.06;5052504;28;20178;-74
2021/03/08 11:20:19;;;;;;;10.13;7.13;;;;;;;1.80;49.67;95911.72;5047359;28;20206;-74
2021/03/08 11:22:52;;;;;;;9.77;7.57;;;;;;;2.00;49.11;95908.84;5044027;28;20908;-74
2021/03/08 11:25:31;;;;;;;8.77;7.33;;;;;;;2.00;49.34;95926.78;5041970;28;20235;-74
2021/03/08 11:27:57;;;;;;;13.67;8.40;;;;;;;1.86;49.23;95919.06;5040590;28;20177;-74
2021/03/08 11:30:24;;;;;;;13.07;8.33;;;;;;;1.90;48.61;95913.66;5043944;28;20259;-74